sensor_id;sensor_type;location;lat;lon;timestamp;P1;durP1;ratioP1;P2;durP2;ratioP2
3052;SDS011;1536;51.098;6.414;2023-06-14T00:01:51;9.10;;;7.27;;
3052;SDS011;1536;51.098;6.414;2023-06-14T00:04:18;9.30;;;7.07;;
3052;SDS011;1536;51.098;6.414;2023-06-14T00:06:45;8.63;;;7.07;;
3052;SDS011;1536;51.098;6.414;2023-06-14T00:09:13;6.80;;;6.17;;
3052;SDS011;1536;51.098;6.414;2023-06-14T00:11:42;7.40;;;6.70;;
3052;SDS011;1536;51.098;6.414;2023-06-14T00:14:10;8.70;;;7.00;;
3052;SDS011;1536;51.098;6.414;2023-06-14T00:16:37;9.40;;;7.67;;
3052;SDS011;1536;51.098;6.414;2023-06-14T00:19:04;8.00;;;7.30;;
3052;SDS011;1536;51.098;6.414;2023-06-14T00:21:31;7.90;;;6.93;;
3052;SDS011;1536;51.098;6.414;2023-06-14T00:23:57;8.67;;;6.90;;
3052;SDS011;1536;51.098;6.414;2023-06-14T00:26:25;8.07;;;7.30;;
3052;SDS011;1536;51.098;6.414;2023-06-14T00:28:51;8.60;;;7.80;;
3052;SDS011;1536;51.098;6.414;2023-06-14T00:31:19;8.30;;;7.30;;
3052;SDS011;1536;51.098;6.414;2023-06-14T00:33:46;8.10;;;7.30;;
3052;SDS011;1536;51.098;6.414;2023-06-14T00:36:13;8.67;;;7.97;;
3052;SDS011;1536;51.098;6.414;2023-06-14T00:38:39;8.83;;;7.93;;
3052;SDS011;1536;51.098;6.414;2023-06-14T00:41:06;8.00;;;7.30;;
3052;SDS011;1536;51.098;6.414;2023-06-14T00:43:33;8.10;;;7.40;;
3052;SDS011;1536;51.098;6.414;2023-06-14T00:46:00;8.73;;;7.93;;
3052;SDS011;1536;51.098;6.414;2023-06-14T00:48:28;8.00;;;7.20;;
3052;SDS011;1536;51.098;6.414;2023-06-14T00:50:56;8.27;;;7.57;;
3052;SDS011;1536;51.098;6.414;2023-06-14T00:53:26;8.10;;;7.30;;
3052;SDS011;1536;51.098;6.414;2023-06-14T00:55:55;7.77;;;7.07;;
3052;SDS011;1536;51.098;6.414;2023-06-14T00:58:21;8.87;;;8.07;;
3052;SDS011;1536;51.098;6.414;2023-06-14T01:00:49;8.17;;;7.47;;
3052;SDS011;1536;51.098;6.414;2023-06-14T01:03:16;8.37;;;7.57;;
3052;SDS011;1536;51.098;6.414;2023-06-14T01:05:48;10.80;;;7.90;;
3052;SDS011;1536;51.098;6.414;2023-06-14T01:08:20;8.30;;;7.60;;
3052;SDS011;1536;51.098;6.414;2023-06-14T01:10:56;10.77;;;8.37;;
3052;SDS011;1536;51.098;6.414;2023-06-14T01:13:32;8.53;;;7.43;;
3052;SDS011;1536;51.098;6.414;2023-06-14T01:16:00;8.23;;;7.53;;
3052;SDS011;1536;51.098;6.414;2023-06-14T01:18:28;8.83;;;7.93;;
3052;SDS011;1536;51.098;6.414;2023-06-14T01:20:56;8.00;;;7.20;;
3052;SDS011;1536;51.098;6.414;2023-06-14T01:23:24;7.70;;;7.10;;
3052;SDS011;1536;51.098;6.414;2023-06-14T01:25:57;8.37;;;7.60;;
3052;SDS011;1536;51.098;6.414;2023-06-14T01:28:28;8.00;;;7.30;;
3052;SDS011;1536;51.098;6.414;2023-06-14T01:30:57;8.87;;;8.07;;
3052;SDS011;1536;51.098;6.414;2023-06-14T01:33:29;12.13;;;7.27;;
3052;SDS011;1536;51.098;6.414;2023-06-14T01:35:57;11.30;;;7.50;;
3052;SDS011;1536;51.098;6.414;2023-06-14T01:38:26;8.40;;;7.57;;
3052;SDS011;1536;51.098;6.414;2023-06-14T01:40:55;12.50;;;6.90;;
3052;SDS011;1536;51.098;6.414;2023-06-14T01:43:24;8.07;;;7.27;;
3052;SDS011;1536;51.098;6.414;2023-06-14T01:45:52;10.67;;;7.37;;
3052;SDS011;1536;51.098;6.414;2023-06-14T01:48:20;10.27;;;7.97;;
3052;SDS011;1536;51.098;6.414;2023-06-14T01:50:47;8.43;;;7.40;;
3052;SDS011;1536;51.098;6.414;2023-06-14T01:53:17;9.70;;;7.00;;
3052;SDS011;1536;51.098;6.414;2023-06-14T01:55:45;7.70;;;6.93;;
3052;SDS011;1536;51.098;6.414;2023-06-14T01:58:13;8.30;;;7.60;;
3052;SDS011;1536;51.098;6.414;2023-06-14T02:00:41;9.20;;;7.10;;
3052;SDS011;1536;51.098;6.414;2023-06-14T02:03:10;7.50;;;6.80;;
3052;SDS011;1536;51.098;6.414;2023-06-14T02:05:38;8.40;;;7.37;;
3052;SDS011;1536;51.098;6.414;2023-06-14T02:08:05;8.63;;;7.83;;
3052;SDS011;1536;51.098;6.414;2023-06-14T02:10:32;8.37;;;6.70;;
3052;SDS011;1536;51.098;6.414;2023-06-14T02:13:00;8.47;;;7.37;;
3052;SDS011;1536;51.098;6.414;2023-06-14T02:15:27;7.47;;;6.77;;
3052;SDS011;1536;51.098;6.414;2023-06-14T02:17:58;9.40;;;7.10;;
3052;SDS011;1536;51.098;6.414;2023-06-14T02:20:25;7.50;;;6.90;;
3052;SDS011;1536;51.098;6.414;2023-06-14T02:22:52;7.63;;;6.93;;
3052;SDS011;1536;51.098;6.414;2023-06-14T02:25:19;7.40;;;6.70;;
3052;SDS011;1536;51.098;6.414;2023-06-14T02:27:46;7.40;;;6.80;;
3052;SDS011;1536;51.098;6.414;2023-06-14T02:30:14;7.80;;;7.03;;
3052;SDS011;1536;51.098;6.414;2023-06-14T02:32:41;8.43;;;7.33;;
3052;SDS011;1536;51.098;6.414;2023-06-14T02:35:08;7.20;;;6.57;;
3052;SDS011;1536;51.098;6.414;2023-06-14T02:37:35;7.97;;;7.17;;
3052;SDS011;1536;51.098;6.414;2023-06-14T02:40:03;7.73;;;7.03;;
3052;SDS011;1536;51.098;6.414;2023-06-14T02:42:30;8.50;;;7.23;;
3052;SDS011;1536;51.098;6.414;2023-06-14T02:44:57;7.07;;;6.43;;
3052;SDS011;1536;51.098;6.414;2023-06-14T02:47:25;7.80;;;7.10;;
3052;SDS011;1536;51.098;6.414;2023-06-14T02:49:52;7.53;;;6.93;;
3052;SDS011;1536;51.098;6.414;2023-06-14T02:52:19;7.57;;;6.87;;
3052;SDS011;1536;51.098;6.414;2023-06-14T02:54:46;8.50;;;7.60;;
3052;SDS011;1536;51.098;6.414;2023-06-14T02:57:13;11.80;;;7.33;;
3052;SDS011;1536;51.098;6.414;2023-06-14T02:59:40;7.70;;;7.00;;
3052;SDS011;1536;51.098;6.414;2023-06-14T03:02:07;7.97;;;7.13;;
3052;SDS011;1536;51.098;6.414;2023-06-14T03:04:35;7.47;;;6.77;;
3052;SDS011;1536;51.098;6.414;2023-06-14T03:07:03;8.57;;;7.60;;
3052;SDS011;1536;51.098;6.414;2023-06-14T03:09:34;8.33;;;7.50;;
3052;SDS011;1536;51.098;6.414;2023-06-14T03:12:02;7.80;;;7.03;;
3052;SDS011;1536;51.098;6.414;2023-06-14T03:14:29;9.77;;;7.97;;
3052;SDS011;1536;51.098;6.414;2023-06-14T03:16:56;10.23;;;7.57;;
3052;SDS011;1536;51.098;6.414;2023-06-14T03:19:23;9.30;;;8.27;;
3052;SDS011;1536;51.098;6.414;2023-06-14T03:21:52;8.83;;;7.77;;
3052;SDS011;1536;51.098;6.414;2023-06-14T03:24:22;8.70;;;7.80;;
3052;SDS011;1536;51.098;6.414;2023-06-14T03:26:48;8.63;;;7.67;;
3052;SDS011;1536;51.098;6.414;2023-06-14T03:29:15;12.63;;;8.27;;
3052;SDS011;1536;51.098;6.414;2023-06-14T03:31:56;11.60;;;7.50;;
3052;SDS011;1536;51.098;6.414;2023-06-14T03:34:23;11.23;;;8.70;;
3052;SDS011;1536;51.098;6.414;2023-06-14T03:36:52;19.57;;;8.60;;
3052;SDS011;1536;51.098;6.414;2023-06-14T03:39:18;14.43;;;8.73;;
3052;SDS011;1536;51.098;6.414;2023-06-14T03:41:46;15.33;;;8.03;;
3052;SDS011;1536;51.098;6.414;2023-06-14T03:44:14;9.93;;;8.07;;
3052;SDS011;1536;51.098;6.414;2023-06-14T03:46:43;8.93;;;8.07;;
3052;SDS011;1536;51.098;6.414;2023-06-14T03:49:10;9.90;;;8.80;;
3052;SDS011;1536;51.098;6.414;2023-06-14T03:51:37;17.70;;;7.80;;
3052;SDS011;1536;51.098;6.414;2023-06-14T03:54:06;12.20;;;7.83;;
3052;SDS011;1536;51.098;6.414;2023-06-14T03:56:33;11.23;;;8.43;;
3052;SDS011;1536;51.098;6.414;2023-06-14T03:59:00;10.20;;;7.80;;
3052;SDS011;1536;51.098;6.414;2023-06-14T04:01:27;17.37;;;8.90;;
3052;SDS011;1536;51.098;6.414;2023-06-14T04:03:55;9.40;;;8.47;;
3052;SDS011;1536;51.098;6.414;2023-06-14T04:06:22;9.90;;;8.43;;
3052;SDS011;1536;51.098;6.414;2023-06-14T04:08:50;7.80;;;7.10;;
3052;SDS011;1536;51.098;6.414;2023-06-14T04:11:18;10.57;;;8.00;;
3052;SDS011;1536;51.098;6.414;2023-06-14T04:13:45;9.27;;;8.27;;
3052;SDS011;1536;51.098;6.414;2023-06-14T04:16:12;7.20;;;6.50;;
3052;SDS011;1536;51.098;6.414;2023-06-14T04:18:39;9.20;;;7.13;;
3052;SDS011;1536;51.098;6.414;2023-06-14T04:21:07;8.23;;;7.43;;
3052;SDS011;1536;51.098;6.414;2023-06-14T04:23:34;11.60;;;7.80;;
3052;SDS011;1536;51.098;6.414;2023-06-14T04:26:00;10.70;;;8.17;;
3052;SDS011;1536;51.098;6.414;2023-06-14T04:28:29;8.10;;;7.30;;
3052;SDS011;1536;51.098;6.414;2023-06-14T04:30:55;9.03;;;8.00;;
3052;SDS011;1536;51.098;6.414;2023-06-14T04:33:22;8.03;;;6.90;;
3052;SDS011;1536;51.098;6.414;2023-06-14T04:35:50;8.30;;;7.50;;
3052;SDS011;1536;51.098;6.414;2023-06-14T04:38:18;10.10;;;8.03;;
3052;SDS011;1536;51.098;6.414;2023-06-14T04:40:49;8.60;;;7.80;;
3052;SDS011;1536;51.098;6.414;2023-06-14T04:43:18;13.07;;;7.67;;
3052;SDS011;1536;51.098;6.414;2023-06-14T04:45:54;10.60;;;7.80;;
3052;SDS011;1536;51.098;6.414;2023-06-14T04:48:21;12.67;;;8.37;;
3052;SDS011;1536;51.098;6.414;2023-06-14T04:50:48;10.20;;;7.67;;
3052;SDS011;1536;51.098;6.414;2023-06-14T04:53:17;7.87;;;7.00;;
3052;SDS011;1536;51.098;6.414;2023-06-14T04:55:46;10.63;;;7.57;;
3052;SDS011;1536;51.098;6.414;2023-06-14T04:58:13;8.67;;;7.67;;
3052;SDS011;1536;51.098;6.414;2023-06-14T05:00:40;7.57;;;6.70;;
3052;SDS011;1536;51.098;6.414;2023-06-14T05:03:09;11.90;;;8.03;;
3052;SDS011;1536;51.098;6.414;2023-06-14T05:05:38;7.93;;;7.13;;
3052;SDS011;1536;51.098;6.414;2023-06-14T05:08:05;8.50;;;7.70;;
3052;SDS011;1536;51.098;6.414;2023-06-14T05:10:32;13.90;;;7.53;;
3052;SDS011;1536;51.098;6.414;2023-06-14T05:13:00;9.23;;;7.40;;
3052;SDS011;1536;51.098;6.414;2023-06-14T05:15:26;10.80;;;7.57;;
3052;SDS011;1536;51.098;6.414;2023-06-14T05:17:54;7.93;;;7.20;;
3052;SDS011;1536;51.098;6.414;2023-06-14T05:20:22;9.67;;;7.57;;
3052;SDS011;1536;51.098;6.414;2023-06-14T05:22:52;8.33;;;7.40;;
3052;SDS011;1536;51.098;6.414;2023-06-14T05:25:19;7.40;;;6.20;;
3052;SDS011;1536;51.098;6.414;2023-06-14T05:27:46;9.27;;;7.80;;
3052;SDS011;1536;51.098;6.414;2023-06-14T05:30:13;7.87;;;6.87;;
3052;SDS011;1536;51.098;6.414;2023-06-14T05:32:40;9.97;;;7.03;;
3052;SDS011;1536;51.098;6.414;2023-06-14T05:35:07;8.30;;;7.27;;
3052;SDS011;1536;51.098;6.414;2023-06-14T05:37:36;8.27;;;7.33;;
3052;SDS011;1536;51.098;6.414;2023-06-14T05:40:03;9.30;;;7.10;;
3052;SDS011;1536;51.098;6.414;2023-06-14T05:42:32;8.97;;;7.03;;
3052;SDS011;1536;51.098;6.414;2023-06-14T05:44:59;7.90;;;7.20;;
3052;SDS011;1536;51.098;6.414;2023-06-14T05:47:26;10.53;;;6.70;;
3052;SDS011;1536;51.098;6.414;2023-06-14T05:49:53;9.93;;;6.57;;
3052;SDS011;1536;51.098;6.414;2023-06-14T05:52:20;7.93;;;6.80;;
3052;SDS011;1536;51.098;6.414;2023-06-14T05:54:48;7.97;;;7.17;;
3052;SDS011;1536;51.098;6.414;2023-06-14T05:57:15;8.53;;;6.67;;
3052;SDS011;1536;51.098;6.414;2023-06-14T05:59:42;9.33;;;6.70;;
3052;SDS011;1536;51.098;6.414;2023-06-14T06:02:08;8.50;;;7.60;;
3052;SDS011;1536;51.098;6.414;2023-06-14T06:04:35;8.80;;;6.57;;
3052;SDS011;1536;51.098;6.414;2023-06-14T06:07:02;7.67;;;6.90;;
3052;SDS011;1536;51.098;6.414;2023-06-14T06:09:30;7.17;;;6.30;;
3052;SDS011;1536;51.098;6.414;2023-06-14T06:11:58;9.90;;;7.00;;
3052;SDS011;1536;51.098;6.414;2023-06-14T06:14:25;8.60;;;6.40;;
3052;SDS011;1536;51.098;6.414;2023-06-14T06:16:52;9.03;;;7.10;;
3052;SDS011;1536;51.098;6.414;2023-06-14T06:19:19;6.50;;;5.90;;
3052;SDS011;1536;51.098;6.414;2023-06-14T06:21:46;8.20;;;6.80;;
3052;SDS011;1536;51.098;6.414;2023-06-14T06:24:13;8.30;;;6.70;;
3052;SDS011;1536;51.098;6.414;2023-06-14T06:26:40;7.87;;;6.93;;
3052;SDS011;1536;51.098;6.414;2023-06-14T06:29:08;6.60;;;5.97;;
3052;SDS011;1536;51.098;6.414;2023-06-14T06:31:35;13.30;;;6.87;;
3052;SDS011;1536;51.098;6.414;2023-06-14T06:34:01;8.37;;;6.60;;
3052;SDS011;1536;51.098;6.414;2023-06-14T06:36:28;7.20;;;6.07;;
3052;SDS011;1536;51.098;6.414;2023-06-14T06:38:55;8.00;;;5.97;;
3052;SDS011;1536;51.098;6.414;2023-06-14T06:41:22;8.00;;;6.20;;
3052;SDS011;1536;51.098;6.414;2023-06-14T06:43:48;5.73;;;5.17;;
3052;SDS011;1536;51.098;6.414;2023-06-14T06:46:16;7.07;;;5.90;;
3052;SDS011;1536;51.098;6.414;2023-06-14T06:48:44;7.37;;;5.90;;
3052;SDS011;1536;51.098;6.414;2023-06-14T06:51:11;5.30;;;4.80;;
3052;SDS011;1536;51.098;6.414;2023-06-14T06:53:38;7.80;;;5.27;;
3052;SDS011;1536;51.098;6.414;2023-06-14T06:56:04;5.63;;;5.10;;
3052;SDS011;1536;51.098;6.414;2023-06-14T06:58:31;7.50;;;5.40;;
3052;SDS011;1536;51.098;6.414;2023-06-14T07:00:58;7.30;;;6.00;;
3052;SDS011;1536;51.098;6.414;2023-06-14T07:03:26;6.90;;;5.47;;
3052;SDS011;1536;51.098;6.414;2023-06-14T07:05:54;7.07;;;5.30;;
3052;SDS011;1536;51.098;6.414;2023-06-14T07:08:20;5.80;;;5.27;;
3052;SDS011;1536;51.098;6.414;2023-06-14T07:10:47;5.53;;;4.97;;
3052;SDS011;1536;51.098;6.414;2023-06-14T07:13:14;5.67;;;5.07;;
3052;SDS011;1536;51.098;6.414;2023-06-14T07:15:41;7.50;;;5.20;;
3052;SDS011;1536;51.098;6.414;2023-06-14T07:18:08;10.60;;;6.03;;
3052;SDS011;1536;51.098;6.414;2023-06-14T07:20:36;9.20;;;6.60;;
3052;SDS011;1536;51.098;6.414;2023-06-14T07:23:03;15.90;;;7.97;;
3052;SDS011;1536;51.098;6.414;2023-06-14T07:25:30;11.27;;;7.90;;
3052;SDS011;1536;51.098;6.414;2023-06-14T07:27:57;11.77;;;5.67;;
3052;SDS011;1536;51.098;6.414;2023-06-14T07:30:24;13.83;;;6.80;;
3052;SDS011;1536;51.098;6.414;2023-06-14T07:32:52;12.20;;;6.57;;
3052;SDS011;1536;51.098;6.414;2023-06-14T07:35:19;10.37;;;6.17;;
3052;SDS011;1536;51.098;6.414;2023-06-14T07:37:47;6.13;;;5.33;;
3052;SDS011;1536;51.098;6.414;2023-06-14T07:40:14;5.53;;;5.13;;
3052;SDS011;1536;51.098;6.414;2023-06-14T07:42:42;6.20;;;4.00;;
3052;SDS011;1536;51.098;6.414;2023-06-14T07:45:09;5.57;;;4.47;;
3052;SDS011;1536;51.098;6.414;2023-06-14T07:47:38;5.43;;;4.60;;
3052;SDS011;1536;51.098;6.414;2023-06-14T07:50:05;9.83;;;5.10;;
3052;SDS011;1536;51.098;6.414;2023-06-14T07:52:32;8.27;;;4.50;;
3052;SDS011;1536;51.098;6.414;2023-06-14T07:55:00;6.20;;;4.60;;
3052;SDS011;1536;51.098;6.414;2023-06-14T07:57:27;4.90;;;4.40;;
3052;SDS011;1536;51.098;6.414;2023-06-14T07:59:54;4.53;;;4.23;;
3052;SDS011;1536;51.098;6.414;2023-06-14T08:02:20;7.30;;;5.00;;
3052;SDS011;1536;51.098;6.414;2023-06-14T08:04:47;5.50;;;5.00;;
3052;SDS011;1536;51.098;6.414;2023-06-14T08:07:14;9.33;;;4.40;;
3052;SDS011;1536;51.098;6.414;2023-06-14T08:09:41;5.47;;;4.90;;
3052;SDS011;1536;51.098;6.414;2023-06-14T08:12:10;10.10;;;4.90;;
3052;SDS011;1536;51.098;6.414;2023-06-14T08:14:36;10.90;;;4.50;;
3052;SDS011;1536;51.098;6.414;2023-06-14T08:17:05;4.83;;;4.30;;
3052;SDS011;1536;51.098;6.414;2023-06-14T08:19:31;5.00;;;4.50;;
3052;SDS011;1536;51.098;6.414;2023-06-14T08:21:58;7.80;;;4.60;;
3052;SDS011;1536;51.098;6.414;2023-06-14T08:24:25;5.93;;;5.37;;
3052;SDS011;1536;51.098;6.414;2023-06-14T08:26:53;4.77;;;4.27;;
3052;SDS011;1536;51.098;6.414;2023-06-14T08:29:21;5.60;;;4.37;;
3052;SDS011;1536;51.098;6.414;2023-06-14T08:31:48;4.90;;;4.50;;
3052;SDS011;1536;51.098;6.414;2023-06-14T08:34:14;6.60;;;4.07;;
3052;SDS011;1536;51.098;6.414;2023-06-14T08:36:41;5.90;;;4.33;;
3052;SDS011;1536;51.098;6.414;2023-06-14T08:39:09;5.70;;;3.90;;
3052;SDS011;1536;51.098;6.414;2023-06-14T08:41:36;4.33;;;3.93;;
3052;SDS011;1536;51.098;6.414;2023-06-14T08:44:03;4.83;;;4.00;;
3052;SDS011;1536;51.098;6.414;2023-06-14T08:46:33;5.73;;;3.17;;
3052;SDS011;1536;51.098;6.414;2023-06-14T08:49:01;3.70;;;3.40;;
3052;SDS011;1536;51.098;6.414;2023-06-14T08:51:28;4.13;;;3.03;;
3052;SDS011;1536;51.098;6.414;2023-06-14T08:53:59;4.17;;;2.90;;
3052;SDS011;1536;51.098;6.414;2023-06-14T08:56:26;3.30;;;3.00;;
3052;SDS011;1536;51.098;6.414;2023-06-14T08:58:54;5.10;;;3.13;;
3052;SDS011;1536;51.098;6.414;2023-06-14T09:01:22;3.70;;;3.33;;
3052;SDS011;1536;51.098;6.414;2023-06-14T09:03:51;3.20;;;2.90;;
3052;SDS011;1536;51.098;6.414;2023-06-14T09:06:20;2.87;;;2.67;;
3052;SDS011;1536;51.098;6.414;2023-06-14T09:08:48;3.57;;;3.27;;
3052;SDS011;1536;51.098;6.414;2023-06-14T09:11:16;8.23;;;3.40;;
3052;SDS011;1536;51.098;6.414;2023-06-14T09:13:44;4.27;;;3.23;;
3052;SDS011;1536;51.098;6.414;2023-06-14T09:16:12;4.00;;;3.63;;
3052;SDS011;1536;51.098;6.414;2023-06-14T09:18:39;3.40;;;3.20;;
3052;SDS011;1536;51.098;6.414;2023-06-14T09:21:10;3.03;;;2.83;;
3052;SDS011;1536;51.098;6.414;2023-06-14T09:23:38;4.53;;;3.20;;
3052;SDS011;1536;51.098;6.414;2023-06-14T09:26:06;3.70;;;3.40;;
3052;SDS011;1536;51.098;6.414;2023-06-14T09:28:34;3.00;;;2.80;;
3052;SDS011;1536;51.098;6.414;2023-06-14T09:31:01;3.63;;;3.00;;
3052;SDS011;1536;51.098;6.414;2023-06-14T09:33:28;3.83;;;3.50;;
3052;SDS011;1536;51.098;6.414;2023-06-14T09:35:55;5.00;;;3.23;;
3052;SDS011;1536;51.098;6.414;2023-06-14T09:38:23;5.90;;;2.90;;
3052;SDS011;1536;51.098;6.414;2023-06-14T09:40:51;4.90;;;2.90;;
3052;SDS011;1536;51.098;6.414;2023-06-14T09:43:18;3.40;;;3.10;;
3052;SDS011;1536;51.098;6.414;2023-06-14T09:45:46;3.67;;;3.37;;
3052;SDS011;1536;51.098;6.414;2023-06-14T09:48:14;6.40;;;3.10;;
3052;SDS011;1536;51.098;6.414;2023-06-14T09:50:44;3.97;;;3.10;;
3052;SDS011;1536;51.098;6.414;2023-06-14T09:53:12;5.17;;;2.80;;
3052;SDS011;1536;51.098;6.414;2023-06-14T09:55:41;4.83;;;3.10;;
3052;SDS011;1536;51.098;6.414;2023-06-14T09:58:08;3.43;;;3.10;;
3052;SDS011;1536;51.098;6.414;2023-06-14T10:00:37;8.13;;;3.40;;
3052;SDS011;1536;51.098;6.414;2023-06-14T10:03:06;4.20;;;3.33;;
3052;SDS011;1536;51.098;6.414;2023-06-14T10:05:37;3.33;;;3.13;;
3052;SDS011;1536;51.098;6.414;2023-06-14T10:08:07;3.40;;;2.97;;
3052;SDS011;1536;51.098;6.414;2023-06-14T10:10:35;3.40;;;3.10;;
3052;SDS011;1536;51.098;6.414;2023-06-14T10:13:06;3.60;;;3.30;;
3052;SDS011;1536;51.098;6.414;2023-06-14T10:15:35;3.20;;;2.90;;
3052;SDS011;1536;51.098;6.414;2023-06-14T10:18:11;4.10;;;2.93;;
3052;SDS011;1536;51.098;6.414;2023-06-14T10:20:49;5.90;;;3.03;;
3052;SDS011;1536;51.098;6.414;2023-06-14T10:23:22;4.00;;;3.60;;
3052;SDS011;1536;51.098;6.414;2023-06-14T10:25:50;3.27;;;3.07;;
3052;SDS011;1536;51.098;6.414;2023-06-14T10:28:23;4.77;;;3.30;;
3052;SDS011;1536;51.098;6.414;2023-06-14T10:31:04;3.27;;;2.70;;
3052;SDS011;1536;51.098;6.414;2023-06-14T10:33:32;3.10;;;2.40;;
3052;SDS011;1536;51.098;6.414;2023-06-14T10:38:59;4.83;;;3.33;;
3052;SDS011;1536;51.098;6.414;2023-06-14T10:41:27;3.83;;;3.53;;
3052;SDS011;1536;51.098;6.414;2023-06-14T10:47:07;4.37;;;3.00;;
3052;SDS011;1536;51.098;6.414;2023-06-14T10:49:36;3.63;;;3.00;;
3052;SDS011;1536;51.098;6.414;2023-06-14T10:52:07;3.30;;;3.10;;
3052;SDS011;1536;51.098;6.414;2023-06-14T10:54:42;3.53;;;3.23;;
3052;SDS011;1536;51.098;6.414;2023-06-14T10:57:22;3.57;;;3.00;;
3052;SDS011;1536;51.098;6.414;2023-06-14T10:59:50;3.10;;;2.90;;
3052;SDS011;1536;51.098;6.414;2023-06-14T11:02:20;3.30;;;3.03;;
3052;SDS011;1536;51.098;6.414;2023-06-14T11:05:07;7.10;;;3.30;;
3052;SDS011;1536;51.098;6.414;2023-06-14T11:07:41;3.93;;;3.63;;
3052;SDS011;1536;51.098;6.414;2023-06-14T11:10:22;5.90;;;3.37;;
3052;SDS011;1536;51.098;6.414;2023-06-14T11:12:59;4.90;;;3.57;;
3052;SDS011;1536;51.098;6.414;2023-06-14T11:15:29;3.90;;;3.30;;
3052;SDS011;1536;51.098;6.414;2023-06-14T11:17:56;5.00;;;3.40;;
3052;SDS011;1536;51.098;6.414;2023-06-14T11:20:24;3.40;;;3.13;;
3052;SDS011;1536;51.098;6.414;2023-06-14T11:22:52;4.10;;;3.50;;
3052;SDS011;1536;51.098;6.414;2023-06-14T11:25:19;4.73;;;4.20;;
3052;SDS011;1536;51.098;6.414;2023-06-14T11:27:48;3.77;;;3.37;;
3052;SDS011;1536;51.098;6.414;2023-06-14T11:30:16;5.37;;;3.13;;
3052;SDS011;1536;51.098;6.414;2023-06-14T11:32:46;4.90;;;3.30;;
3052;SDS011;1536;51.098;6.414;2023-06-14T11:35:15;3.40;;;3.10;;
3052;SDS011;1536;51.098;6.414;2023-06-14T11:37:43;3.47;;;3.10;;
3052;SDS011;1536;51.098;6.414;2023-06-14T11:40:10;5.03;;;3.40;;
3052;SDS011;1536;51.098;6.414;2023-06-14T11:42:38;4.27;;;3.30;;
3052;SDS011;1536;51.098;6.414;2023-06-14T11:45:07;3.20;;;3.00;;
3052;SDS011;1536;51.098;6.414;2023-06-14T11:47:35;3.40;;;2.80;;
3052;SDS011;1536;51.098;6.414;2023-06-14T11:50:04;3.60;;;2.90;;
3052;SDS011;1536;51.098;6.414;2023-06-14T11:52:33;2.93;;;2.73;;
3052;SDS011;1536;51.098;6.414;2023-06-14T11:55:01;2.73;;;2.53;;
3052;SDS011;1536;51.098;6.414;2023-06-14T11:57:29;3.20;;;3.00;;
3052;SDS011;1536;51.098;6.414;2023-06-14T11:59:56;11.27;;;3.40;;
3052;SDS011;1536;51.098;6.414;2023-06-14T12:02:23;6.47;;;3.10;;
3052;SDS011;1536;51.098;6.414;2023-06-14T12:04:52;3.40;;;3.00;;
3052;SDS011;1536;51.098;6.414;2023-06-14T12:07:21;3.20;;;3.00;;
3052;SDS011;1536;51.098;6.414;2023-06-14T12:10:04;3.63;;;3.10;;
3052;SDS011;1536;51.098;6.414;2023-06-14T12:12:34;9.43;;;2.83;;
3052;SDS011;1536;51.098;6.414;2023-06-14T12:15:02;2.80;;;2.60;;
3052;SDS011;1536;51.098;6.414;2023-06-14T12:17:31;3.53;;;3.23;;
3052;SDS011;1536;51.098;6.414;2023-06-14T12:19:58;4.40;;;3.70;;
3052;SDS011;1536;51.098;6.414;2023-06-14T12:22:34;3.40;;;3.10;;
3052;SDS011;1536;51.098;6.414;2023-06-14T12:25:01;3.43;;;2.57;;
3052;SDS011;1536;51.098;6.414;2023-06-14T12:27:28;4.60;;;3.03;;
3052;SDS011;1536;51.098;6.414;2023-06-14T12:29:59;3.20;;;2.97;;
3052;SDS011;1536;51.098;6.414;2023-06-14T12:32:26;8.47;;;3.10;;
3052;SDS011;1536;51.098;6.414;2023-06-14T12:34:53;3.50;;;3.30;;
3052;SDS011;1536;51.098;6.414;2023-06-14T12:37:20;3.70;;;3.40;;
3052;SDS011;1536;51.098;6.414;2023-06-14T12:39:48;3.93;;;3.07;;
3052;SDS011;1536;51.098;6.414;2023-06-14T12:42:15;3.70;;;3.40;;
3052;SDS011;1536;51.098;6.414;2023-06-14T12:44:42;4.33;;;3.70;;
3052;SDS011;1536;51.098;6.414;2023-06-14T12:47:09;3.50;;;3.30;;
3052;SDS011;1536;51.098;6.414;2023-06-14T12:49:38;3.80;;;3.50;;
3052;SDS011;1536;51.098;6.414;2023-06-14T12:52:07;3.43;;;3.13;;
3052;SDS011;1536;51.098;6.414;2023-06-14T12:54:34;4.37;;;3.37;;
3052;SDS011;1536;51.098;6.414;2023-06-14T12:57:02;3.63;;;3.30;;
3052;SDS011;1536;51.098;6.414;2023-06-14T12:59:30;4.30;;;3.93;;
3052;SDS011;1536;51.098;6.414;2023-06-14T13:01:59;4.00;;;3.63;;
3052;SDS011;1536;51.098;6.414;2023-06-14T13:04:35;4.73;;;3.17;;
3052;SDS011;1536;51.098;6.414;2023-06-14T13:07:02;3.77;;;2.87;;
3052;SDS011;1536;51.098;6.414;2023-06-14T13:09:29;4.87;;;3.60;;
3052;SDS011;1536;51.098;6.414;2023-06-14T13:11:56;3.80;;;3.50;;
3052;SDS011;1536;51.098;6.414;2023-06-14T13:14:24;3.30;;;3.10;;
3052;SDS011;1536;51.098;6.414;2023-06-14T13:16:51;6.43;;;3.43;;
3052;SDS011;1536;51.098;6.414;2023-06-14T13:19:17;3.80;;;3.33;;
3052;SDS011;1536;51.098;6.414;2023-06-14T13:21:44;3.13;;;2.90;;
3052;SDS011;1536;51.098;6.414;2023-06-14T13:24:11;4.10;;;2.83;;
3052;SDS011;1536;51.098;6.414;2023-06-14T13:26:38;6.33;;;3.07;;
3052;SDS011;1536;51.098;6.414;2023-06-14T13:29:04;5.80;;;4.67;;
3052;SDS011;1536;51.098;6.414;2023-06-14T13:31:33;3.30;;;3.00;;
3052;SDS011;1536;51.098;6.414;2023-06-14T13:33:59;2.97;;;2.77;;
3052;SDS011;1536;51.098;6.414;2023-06-14T13:36:26;2.80;;;2.60;;
3052;SDS011;1536;51.098;6.414;2023-06-14T13:38:55;4.70;;;3.17;;
3052;SDS011;1536;51.098;6.414;2023-06-14T13:41:23;2.93;;;2.73;;
3052;SDS011;1536;51.098;6.414;2023-06-14T13:43:56;2.70;;;2.50;;
3052;SDS011;1536;51.098;6.414;2023-06-14T13:46:23;4.23;;;2.83;;
3052;SDS011;1536;51.098;6.414;2023-06-14T13:48:52;4.20;;;3.87;;
3052;SDS011;1536;51.098;6.414;2023-06-14T13:51:19;3.23;;;2.87;;
3052;SDS011;1536;51.098;6.414;2023-06-14T13:53:45;3.80;;;3.10;;
3052;SDS011;1536;51.098;6.414;2023-06-14T13:56:12;4.83;;;2.60;;
3052;SDS011;1536;51.098;6.414;2023-06-14T13:58:39;3.60;;;3.30;;
3052;SDS011;1536;51.098;6.414;2023-06-14T14:01:06;2.93;;;2.73;;
3052;SDS011;1536;51.098;6.414;2023-06-14T14:03:34;3.60;;;3.13;;
3052;SDS011;1536;51.098;6.414;2023-06-14T14:06:02;3.43;;;3.13;;
3052;SDS011;1536;51.098;6.414;2023-06-14T14:08:30;3.40;;;3.10;;
3052;SDS011;1536;51.098;6.414;2023-06-14T14:11:12;3.70;;;2.90;;
3052;SDS011;1536;51.098;6.414;2023-06-14T14:13:41;2.90;;;2.70;;
3052;SDS011;1536;51.098;6.414;2023-06-14T14:16:08;3.33;;;2.90;;
3052;SDS011;1536;51.098;6.414;2023-06-14T14:18:35;3.80;;;2.47;;
3052;SDS011;1536;51.098;6.414;2023-06-14T14:21:04;2.87;;;2.67;;
3052;SDS011;1536;51.098;6.414;2023-06-14T14:23:30;2.60;;;2.50;;
3052;SDS011;1536;51.098;6.414;2023-06-14T14:25:57;2.73;;;2.53;;
3052;SDS011;1536;51.098;6.414;2023-06-14T14:28:25;5.47;;;2.97;;
3052;SDS011;1536;51.098;6.414;2023-06-14T14:30:52;3.90;;;3.40;;
3052;SDS011;1536;51.098;6.414;2023-06-14T14:33:20;3.60;;;3.30;;
3052;SDS011;1536;51.098;6.414;2023-06-14T14:35:46;2.93;;;2.63;;
3052;SDS011;1536;51.098;6.414;2023-06-14T14:38:15;3.40;;;2.77;;
3052;SDS011;1536;51.098;6.414;2023-06-14T14:40:42;3.23;;;3.03;;
3052;SDS011;1536;51.098;6.414;2023-06-14T14:43:08;3.60;;;2.63;;
3052;SDS011;1536;51.098;6.414;2023-06-14T14:45:36;3.03;;;2.83;;
3052;SDS011;1536;51.098;6.414;2023-06-14T14:48:03;5.40;;;3.00;;
3052;SDS011;1536;51.098;6.414;2023-06-14T14:50:30;5.70;;;3.10;;
3052;SDS011;1536;51.098;6.414;2023-06-14T14:52:56;6.27;;;2.97;;
3052;SDS011;1536;51.098;6.414;2023-06-14T14:55:24;3.77;;;2.90;;
3052;SDS011;1536;51.098;6.414;2023-06-14T14:57:51;3.40;;;3.10;;
3052;SDS011;1536;51.098;6.414;2023-06-14T15:00:18;3.07;;;2.73;;
3052;SDS011;1536;51.098;6.414;2023-06-14T15:02:45;2.93;;;2.67;;
3052;SDS011;1536;51.098;6.414;2023-06-14T15:05:12;2.87;;;2.67;;
3052;SDS011;1536;51.098;6.414;2023-06-14T15:07:38;3.37;;;3.07;;
3052;SDS011;1536;51.098;6.414;2023-06-14T15:10:06;5.93;;;3.17;;
3052;SDS011;1536;51.098;6.414;2023-06-14T15:12:35;4.70;;;3.23;;
3052;SDS011;1536;51.098;6.414;2023-06-14T15:15:02;5.30;;;3.30;;
3052;SDS011;1536;51.098;6.414;2023-06-14T15:17:29;3.80;;;2.90;;
3052;SDS011;1536;51.098;6.414;2023-06-14T15:19:56;4.43;;;2.90;;
3052;SDS011;1536;51.098;6.414;2023-06-14T15:22:23;3.33;;;3.10;;
3052;SDS011;1536;51.098;6.414;2023-06-14T15:24:50;3.37;;;3.17;;
3052;SDS011;1536;51.098;6.414;2023-06-14T15:27:16;6.83;;;3.07;;